Time;durP1;ratioP1;P1;durP2;ratioP2;P2;SDS_P1;SDS_P2;PMS_P1;PMS_P2;Temp;Humidity;BMP_temperature;BMP_pressure;BME280_temperature;BME280_humidity;BME280_pressure;Samples;Min_cycle;Max_cycle;Signal;HPM_P1;HPM_P2
2023/05/22 00:01:25;;;;;;;2.20;2.00;;;;;;;;;;5117112;28;20027;-66
2023/05/22 00:03:53;;;;;;;6.07;2.90;;;;;;;;;;5117791;28;20039;-66
2023/05/22 00:06:18;;;;;;;2.17;2.08;;;;;;;;;;5117556;27;20012;-66
2023/05/22 00:08:44;;;;;;;2.30;2.20;;;;;;;;;;5138565;27;20054;-66
2023/05/22 00:11:10;;;;;;;2.60;2.40;;;;;;;;;;5138246;27;20015;-66
2023/05/22 00:13:35;;;;;;;3.47;2.10;;;;;;;;;;5106230;28;20032;-64
2023/05/22 00:16:02;;;;;;;5.00;2.40;;;;;;;;;;5117749;28;20030;-64
2023/05/22 00:18:27;;;;;;;2.88;1.90;;;;;;;;;;5117373;28;20054;-64
2023/05/22 00:20:54;;;;;;;2.30;2.10;;;;;;;;;;5117795;28;20028;-64
2023/05/22 00:23:20;;;;;;;2.58;2.13;;;;;;;;;;5117529;28;20454;-64
2023/05/22 00:25:46;;;;;;;2.25;2.05;;;;;;;;;;5117553;28;20019;-65
2023/05/22 00:28:12;;;;;;;2.67;2.03;;;;;;;;;;5116976;28;20409;-66
2023/05/22 00:30:37;;;;;;;4.50;2.05;;;;;;;;;;5116506;28;20051;-66
2023/05/22 00:33:03;;;;;;;5.65;2.40;;;;;;;;;;5116911;28;20378;-64
2023/05/22 00:35:28;;;;;;;2.15;2.05;;;;;;;;;;5116071;28;20032;-64
2023/05/22 00:37:54;;;;;;;2.28;2.08;;;;;;;;;;5116071;28;20080;-64
2023/05/22 00:40:20;;;;;;;2.35;2.25;;;;;;;;;;5115968;28;20032;-64
2023/05/22 00:42:45;;;;;;;2.55;2.08;;;;;;;;;;5116220;28;20118;-64
2023/05/22 00:45:12;;;;;;;3.55;2.10;;;;;;;;;;5097753;28;20030;-64
2023/05/22 00:47:38;;;;;;;2.85;2.13;;;;;;;;;;5117313;28;20016;-64
2023/05/22 00:50:04;;;;;;;2.30;2.10;;;;;;;;;;5116988;28;20498;-64
2023/05/22 00:52:30;;;;;;;2.67;2.47;;;;;;;;;;5116775;28;20115;-64
2023/05/22 00:54:55;;;;;;;2.55;2.10;;;;;;;;;;5116946;28;20547;-64
2023/05/22 00:57:21;;;;;;;2.47;2.28;;;;;;;;;;5116839;28;20406;-64
2023/05/22 00:59:47;;;;;;;2.00;1.90;;;;;;;;;;5116561;28;20055;-65
2023/05/22 01:02:15;;;;;;;3.10;2.22;;;;;;;;;;5115525;28;20034;-65
2023/05/22 01:04:49;;;;;;;1.98;1.88;;;;;;;;;;5116785;28;20126;-65
2023/05/22 01:07:15;;;;;;;3.50;2.35;;;;;;;;;;5116985;28;20028;-65
2023/05/22 01:09:55;;;;;;;2.60;2.40;;;;;;;;;;5117081;28;20106;-65
2023/05/22 01:12:29;;;;;;;2.20;2.10;;;;;;;;;;5115615;28;20020;-66
2023/05/22 01:15:05;;;;;;;2.63;2.10;;;;;;;;;;5125796;27;20045;-66
2023/05/22 01:17:44;;;;;;;2.00;1.90;;;;;;;;;;5116208;27;20150;-64
2023/05/22 01:20:13;;;;;;;2.15;2.03;;;;;;;;;;5133069;27;20486;-65
2023/05/22 01:22:42;;;;;;;3.47;2.03;;;;;;;;;;5116110;28;20045;-62
2023/05/22 01:25:36;;;;;;;2.60;2.17;;;;;;;;;;5116035;28;20035;-62
2023/05/22 01:28:08;;;;;;;2.45;2.22;;;;;;;;;;5007386;28;20038;-62
2023/05/22 01:30:47;;;;;;;2.28;2.17;;;;;;;;;;5095533;28;20021;-61
2023/05/22 01:33:13;;;;;;;2.53;2.33;;;;;;;;;;5096281;28;20028;-61
2023/05/22 01:35:40;;;;;;;2.40;2.20;;;;;;;;;;5095655;28;20085;-61
2023/05/22 01:38:07;;;;;;;3.80;2.40;;;;;;;;;;5083792;28;20015;-61
2023/05/22 01:40:33;;;;;;;2.28;2.10;;;;;;;;;;5114721;28;20114;-61
2023/05/22 01:42:59;;;;;;;3.15;2.53;;;;;;;;;;5115680;28;20102;-61
2023/05/22 01:45:24;;;;;;;2.35;2.15;;;;;;;;;;5115723;28;20032;-63
2023/05/22 01:47:58;;;;;;;2.78;2.38;;;;;;;;;;5114581;28;20031;-64
2023/05/22 01:50:25;;;;;;;2.85;2.30;;;;;;;;;;5115911;28;20073;-64
2023/05/22 01:53:10;;;;;;;2.38;2.17;;;;;;;;;;5097660;28;20038;-64
2023/05/22 01:55:35;;;;;;;3.70;2.70;;;;;;;;;;5115666;28;20100;-64
2023/05/22 01:58:08;;;;;;;3.30;2.15;;;;;;;;;;5115832;28;20028;-64
2023/05/22 02:00:34;;;;;;;2.47;2.25;;;;;;;;;;5097636;28;20058;-64
2023/05/22 02:03:05;;;;;;;2.47;2.28;;;;;;;;;;5115842;28;20067;-64
2023/05/22 02:05:32;;;;;;;2.70;2.50;;;;;;;;;;5115691;28;20483;-61
2023/05/22 02:07:59;;;;;;;3.45;2.30;;;;;;;;;;5115753;28;20027;-61
2023/05/22 02:10:26;;;;;;;2.13;2.03;;;;;;;;;;5115431;28;20031;-61
2023/05/22 02:12:52;;;;;;;3.78;2.58;;;;;;;;;;5115838;28;20436;-61
2023/05/22 02:15:18;;;;;;;3.63;2.30;;;;;;;;;;5107288;28;20051;-61
2023/05/22 02:17:44;;;;;;;2.90;2.35;;;;;;;;;;5097102;28;20028;-61
2023/05/22 02:20:13;;;;;;;2.97;2.70;;;;;;;;;;5080224;28;20024;-61
2023/05/22 02:22:46;;;;;;;2.42;2.22;;;;;;;;;;5108545;27;20030;-61
2023/05/22 02:25:13;;;;;;;2.60;2.40;;;;;;;;;;5115812;27;20344;-63
2023/05/22 02:27:41;;;;;;;2.83;2.17;;;;;;;;;;5108654;28;20152;-64
2023/05/22 02:30:08;;;;;;;2.70;2.00;;;;;;;;;;5110670;28;20035;-64
2023/05/22 02:32:34;;;;;;;2.67;2.40;;;;;;;;;;5113567;28;20043;-64
2023/05/22 02:35:02;;;;;;;2.67;2.47;;;;;;;;;;5115201;27;20114;-64
2023/05/22 02:37:27;;;;;;;4.13;2.55;;;;;;;;;;5114079;28;20164;-64
2023/05/22 02:39:53;;;;;;;3.28;2.70;;;;;;;;;;5113666;28;20027;-64
2023/05/22 02:42:18;;;;;;;2.60;2.40;;;;;;;;;;5113600;28;20378;-64
2023/05/22 02:44:44;;;;;;;3.85;2.33;;;;;;;;;;5113377;28;20032;-64
2023/05/22 02:47:09;;;;;;;2.70;2.45;;;;;;;;;;5096898;28;20023;-64
2023/05/22 02:49:34;;;;;;;4.35;2.30;;;;;;;;;;5096651;28;20050;-64
2023/05/22 02:52:01;;;;;;;10.07;2.78;;;;;;;;;;5092820;28;20044;-64
2023/05/22 02:54:26;;;;;;;5.53;2.50;;;;;;;;;;5093241;28;20032;-64
2023/05/22 02:56:52;;;;;;;2.70;2.50;;;;;;;;;;5093378;28;20444;-64
2023/05/22 02:59:17;;;;;;;3.55;2.55;;;;;;;;;;5109515;28;20027;-65
2023/05/22 03:01:44;;;;;;;3.60;2.42;;;;;;;;;;5096207;28;20517;-65
2023/05/22 03:04:11;;;;;;;3.47;2.40;;;;;;;;;;5095873;28;20078;-65
2023/05/22 03:06:37;;;;;;;2.50;2.30;;;;;;;;;;5096188;28;20030;-65
2023/05/22 03:09:03;;;;;;;3.25;2.47;;;;;;;;;;5095167;28;20024;-66
2023/05/22 03:11:29;;;;;;;3.55;2.60;;;;;;;;;;5114141;28;20064;-65
2023/05/22 03:13:54;;;;;;;3.00;2.38;;;;;;;;;;5096004;28;20034;-65
2023/05/22 03:16:22;;;;;;;2.70;2.50;;;;;;;;;;5096127;28;20031;-66
2023/05/22 03:18:48;;;;;;;4.63;2.53;;;;;;;;;;5079119;28;20034;-62
2023/05/22 03:21:15;;;;;;;3.28;2.70;;;;;;;;;;5092813;28;20028;-61
2023/05/22 03:23:40;;;;;;;3.45;2.53;;;;;;;;;;5113254;28;20215;-61
2023/05/22 03:26:06;;;;;;;3.10;2.45;;;;;;;;;;5134888;28;20012;-62
2023/05/22 03:28:34;;;;;;;4.07;2.70;;;;;;;;;;5107923;28;20026;-62
2023/05/22 03:31:00;;;;;;;2.67;2.40;;;;;;;;;;5082953;28;20355;-62
2023/05/22 03:33:31;;;;;;;2.80;2.60;;;;;;;;;;5110495;28;20067;-62
2023/05/22 03:35:58;;;;;;;3.08;2.70;;;;;;;;;;5092547;28;20024;-62
2023/05/22 03:38:23;;;;;;;2.67;2.47;;;;;;;;;;5126461;28;20038;-62
2023/05/22 03:40:49;;;;;;;3.08;2.42;;;;;;;;;;5116355;28;20505;-62
2023/05/22 03:43:14;;;;;;;2.97;2.60;;;;;;;;;;5116250;28;20019;-62
2023/05/22 03:45:42;;;;;;;2.97;2.70;;;;;;;;;;5115957;28;20023;-61
2023/05/22 03:48:09;;;;;;;2.70;2.45;;;;;;;;;;5131272;28;20080;-62
2023/05/22 03:50:34;;;;;;;3.25;2.50;;;;;;;;;;5095713;28;20040;-62
2023/05/22 03:52:59;;;;;;;3.30;2.30;;;;;;;;;;5095776;28;20034;-61
2023/05/22 03:55:26;;;;;;;3.05;2.38;;;;;;;;;;5095707;28;20500;-61
2023/05/22 03:57:51;;;;;;;3.05;2.55;;;;;;;;;;5114090;28;20119;-63
2023/05/22 04:00:18;;;;;;;3.13;2.80;;;;;;;;;;5113910;28;20057;-64
2023/05/22 04:02:43;;;;;;;2.60;2.40;;;;;;;;;;5094837;28;20379;-67
2023/05/22 04:05:10;;;;;;;4.15;2.58;;;;;;;;;;5078733;28;20020;-65
2023/05/22 04:07:36;;;;;;;4.05;2.17;;;;;;;;;;5095251;28;20038;-66
2023/05/22 04:10:04;;;;;;;3.92;2.30;;;;;;;;;;5095315;28;20102;-64
2023/05/22 04:12:29;;;;;;;2.70;2.50;;;;;;;;;;5094944;28;20020;-66
2023/05/22 04:14:55;;;;;;;5.03;2.63;;;;;;;;;;5113587;28;20111;-64
2023/05/22 04:17:20;;;;;;;3.58;2.67;;;;;;;;;;5113849;28;20039;-63
2023/05/22 04:19:52;;;;;;;4.40;2.40;;;;;;;;;;5107693;22;20028;-61
2023/05/22 04:22:18;;;;;;;5.10;2.70;;;;;;;;;;5100725;22;20040;-61
2023/05/22 04:24:47;;;;;;;3.42;2.38;;;;;;;;;;5076632;28;20036;-64
2023/05/22 04:27:13;;;;;;;3.00;2.70;;;;;;;;;;5076896;28;20028;-61
2023/05/22 04:29:40;;;;;;;3.30;2.55;;;;;;;;;;5058715;28;20020;-63
2023/05/22 04:32:09;;;;;;;3.28;2.35;;;;;;;;;;5075999;28;20362;-67
2023/05/22 04:34:36;;;;;;;3.72;2.50;;;;;;;;;;5080127;28;20111;-64
2023/05/22 04:37:02;;;;;;;2.67;2.47;;;;;;;;;;5063536;28;20020;-63
2023/05/22 04:39:27;;;;;;;3.05;2.30;;;;;;;;;;5062382;28;20115;-63
2023/05/22 04:41:53;;;;;;;3.22;2.40;;;;;;;;;;5096475;28;20077;-64
2023/05/22 04:44:21;;;;;;;4.93;2.35;;;;;;;;;;5078940;28;20024;-64
2023/05/22 04:46:47;;;;;;;6.35;2.53;;;;;;;;;;5078784;28;20022;-64
2023/05/22 04:49:13;;;;;;;3.33;2.17;;;;;;;;;;5066435;28;20536;-63
2023/05/22 04:51:38;;;;;;;2.78;2.58;;;;;;;;;;5075421;28;20036;-63
2023/05/22 04:54:04;;;;;;;3.05;2.60;;;;;;;;;;5058031;28;20051;-63
2023/05/22 04:56:30;;;;;;;3.55;2.40;;;;;;;;;;5041922;28;20064;-63
2023/05/22 04:58:56;;;;;;;6.25;2.58;;;;;;;;;;5076147;28;20102;-63
2023/05/22 05:01:21;;;;;;;2.80;2.60;;;;;;;;;;5058508;28;20064;-63
2023/05/22 05:03:47;;;;;;;3.22;2.60;;;;;;;;;;5076509;28;20037;-63
2023/05/22 05:06:13;;;;;;;5.80;2.80;;;;;;;;;;5058621;28;20019;-63
2023/05/22 05:08:38;;;;;;;3.15;2.67;;;;;;;;;;5057849;28;20024;-63
2023/05/22 05:11:04;;;;;;;3.40;2.70;;;;;;;;;;5075902;28;20028;-63
2023/05/22 05:13:29;;;;;;;2.70;2.33;;;;;;;;;;5075983;28;20036;-62
2023/05/22 05:15:57;;;;;;;2.78;2.55;;;;;;;;;;5058315;28;20468;-62
2023/05/22 05:18:24;;;;;;;3.85;2.35;;;;;;;;;;5056939;28;20024;-62
2023/05/22 05:20:54;;;;;;;4.47;2.20;;;;;;;;;;5102006;28;20670;-63
2023/05/22 05:23:21;;;;;;;3.00;2.30;;;;;;;;;;5082210;28;20117;-63
2023/05/22 05:25:46;;;;;;;2.60;2.40;;;;;;;;;;5074480;28;20028;-62
2023/05/22 05:28:12;;;;;;;2.65;2.45;;;;;;;;;;5056955;28;20017;-60
2023/05/22 05:30:39;;;;;;;4.22;2.58;;;;;;;;;;5056420;28;20353;-60
2023/05/22 05:33:19;;;;;;;;;;;;;;;;;;5057849;28;20123;-60
2023/05/22 05:35:58;;;;;;;2.60;2.40;;;;;;;;;;5089271;28;20536;-60
2023/05/22 05:38:24;;;;;;;5.60;2.65;;;;;;;;;;5056412;28;20032;-59
2023/05/22 05:40:50;;;;;;;2.95;2.75;;;;;;;;;;5074981;28;20736;-59
2023/05/22 05:43:15;;;;;;;4.10;2.50;;;;;;;;;;5057364;28;20499;-60
2023/05/22 05:45:42;;;;;;;2.50;2.30;;;;;;;;;;5055801;28;20051;-60
2023/05/22 05:48:08;;;;;;;3.35;2.95;;;;;;;;;;5055888;28;20025;-59
2023/05/22 05:50:36;;;;;;;2.88;2.63;;;;;;;;;;5056098;28;20043;-60
2023/05/22 05:53:02;;;;;;;3.47;2.50;;;;;;;;;;5056223;28;20121;-60
2023/05/22 05:55:27;;;;;;;2.53;2.33;;;;;;;;;;5073456;28;20032;-60
2023/05/22 05:57:53;;;;;;;4.15;2.85;;;;;;;;;;5055083;28;20038;-60
2023/05/22 06:00:41;;;;;;;2.90;2.60;;;;;;;;;;5055333;28;20379;-60
2023/05/22 06:03:06;;;;;;;2.58;2.38;;;;;;;;;;5055037;28;20035;-60
2023/05/22 06:05:47;;;;;;;5.25;2.90;;;;;;;;;;5055954;28;20025;-60
2023/05/22 06:08:20;;;;;;;3.65;2.45;;;;;;;;;;5055913;28;20028;-60
2023/05/22 06:10:47;;;;;;;3.17;2.72;;;;;;;;;;5039321;28;20487;-60
2023/05/22 06:13:14;;;;;;;2.72;2.53;;;;;;;;;;5055753;28;20035;-60
2023/05/22 06:15:40;;;;;;;3.25;2.53;;;;;;;;;;5055817;28;20028;-60
2023/05/22 06:18:06;;;;;;;2.92;2.60;;;;;;;;;;5074486;28;20079;-60
2023/05/22 06:20:31;;;;;;;2.75;2.55;;;;;;;;;;5056496;28;20028;-60
2023/05/22 06:22:57;;;;;;;4.68;2.80;;;;;;;;;;5064820;28;20055;-60
2023/05/22 06:25:24;;;;;;;4.80;2.70;;;;;;;;;;5073077;28;20029;-60
2023/05/22 06:27:50;;;;;;;2.33;2.13;;;;;;;;;;5073288;28;20025;-60
2023/05/22 06:30:16;;;;;;;5.05;2.70;;;;;;;;;;5073237;28;20555;-60
2023/05/22 06:32:41;;;;;;;5.65;2.70;;;;;;;;;;5072866;28;20067;-60
2023/05/22 06:35:07;;;;;;;3.78;2.17;;;;;;;;;;5072836;28;20056;-60
2023/05/22 06:37:34;;;;;;;2.80;2.60;;;;;;;;;;5089843;28;20074;-60
2023/05/22 06:40:00;;;;;;;3.47;2.45;;;;;;;;;;5056198;28;20024;-60
2023/05/22 06:42:31;;;;;;;4.75;2.80;;;;;;;;;;5072788;28;20028;-60
2023/05/22 06:45:29;;;;;;;3.92;2.50;;;;;;;;;;5062595;28;20048;-60
2023/05/22 06:48:23;;;;;;;2.33;2.22;;;;;;;;;;5069037;28;20418;-61
2023/05/22 06:51:02;;;;;;;4.57;2.58;;;;;;;;;;5057725;28;20032;-62
2023/05/22 06:53:27;;;;;;;2.65;2.45;;;;;;;;;;5072896;28;20078;-63
2023/05/22 06:55:53;;;;;;;3.38;2.70;;;;;;;;;;5073795;28;20035;-63
2023/05/22 06:58:28;;;;;;;4.45;2.25;;;;;;;;;;5073704;28;20020;-63
2023/05/22 07:00:54;;;;;;;3.25;2.70;;;;;;;;;;5072458;28;20391;-63
2023/05/22 07:03:26;;;;;;;3.90;2.50;;;;;;;;;;5073231;28;20029;-63
2023/05/22 07:06:11;;;;;;;6.45;2.65;;;;;;;;;;5073713;28;20090;-63
2023/05/22 07:08:36;;;;;;;2.35;2.17;;;;;;;;;;5056379;28;20108;-63
2023/05/22 07:11:05;;;;;;;3.67;2.13;;;;;;;;;;5055650;28;20122;-63
2023/05/22 07:13:31;;;;;;;4.00;2.40;;;;;;;;;;5072393;28;20029;-63
2023/05/22 07:15:56;;;;;;;2.60;2.40;;;;;;;;;;5072383;28;20039;-63
2023/05/22 07:18:24;;;;;;;2.30;2.10;;;;;;;;;;5072575;28;20029;-63
2023/05/22 07:20:49;;;;;;;2.05;1.95;;;;;;;;;;5072842;28;20083;-63
2023/05/22 07:23:17;;;;;;;2.20;2.00;;;;;;;;;;5071973;28;20431;-63
2023/05/22 07:25:44;;;;;;;3.60;2.08;;;;;;;;;;5055524;28;20086;-63
2023/05/22 07:28:11;;;;;;;2.15;2.00;;;;;;;;;;5072149;28;20031;-63
2023/05/22 07:30:46;;;;;;;3.05;2.10;;;;;;;;;;5072502;28;20029;-63
2023/05/22 07:33:12;;;;;;;4.20;2.22;;;;;;;;;;5072539;28;20078;-63
2023/05/22 07:35:38;;;;;;;4.63;2.40;;;;;;;;;;5072134;28;20020;-63
2023/05/22 07:38:03;;;;;;;3.58;2.30;;;;;;;;;;5072086;28;20508;-63
2023/05/22 07:40:29;;;;;;;2.33;2.05;;;;;;;;;;5089009;28;20032;-63
2023/05/22 07:42:54;;;;;;;3.65;2.20;;;;;;;;;;5055271;28;20028;-63
2023/05/22 07:45:20;;;;;;;2.50;2.28;;;;;;;;;;5072012;28;20025;-63
2023/05/22 07:47:45;;;;;;;4.18;2.10;;;;;;;;;;5072305;28;20109;-63
2023/05/22 07:50:11;;;;;;;3.35;2.10;;;;;;;;;;5072305;28;20013;-63
2023/05/22 07:52:40;;;;;;;1.80;1.70;;;;;;;;;;5072201;28;20055;-63
2023/05/22 07:55:06;;;;;;;5.18;2.22;;;;;;;;;;5074711;28;20098;-63
2023/05/22 07:57:35;;;;;;;2.33;2.13;;;;;;;;;;5076207;28;20025;-62
2023/05/22 08:00:08;;;;;;;1.83;1.73;;;;;;;;;;5076104;28;20037;-63
2023/05/22 08:02:38;;;;;;;1.90;1.80;;;;;;;;;;5075985;28;20114;-63
2023/05/22 08:05:03;;;;;;;2.00;1.80;;;;;;;;;;5076929;28;20060;-63
2023/05/22 08:07:28;;;;;;;2.35;2.15;;;;;;;;;;5076093;28;20353;-63
2023/05/22 08:09:54;;;;;;;2.08;1.80;;;;;;;;;;5076878;28;20020;-63
2023/05/22 08:12:19;;;;;;;2.75;2.30;;;;;;;;;;5075970;28;20037;-63
2023/05/22 08:14:44;;;;;;;2.53;1.85;;;;;;;;;;5077068;28;20028;-63
2023/05/22 08:17:10;;;;;;;2.60;2.00;;;;;;;;;;5076786;28;20086;-63
2023/05/22 08:19:35;;;;;;;3.05;2.03;;;;;;;;;;5077048;28;20111;-63
2023/05/22 08:22:00;;;;;;;2.45;1.92;;;;;;;;;;5076488;28;20362;-63
2023/05/22 08:24:27;;;;;;;4.70;1.80;;;;;;;;;;5076846;28;20032;-63
2023/05/22 08:26:56;;;;;;;2.17;1.95;;;;;;;;;;5076886;28;20029;-63
2023/05/22 08:29:21;;;;;;;2.67;2.10;;;;;;;;;;5076525;28;20066;-63
2023/05/22 08:31:46;;;;;;;2.63;1.90;;;;;;;;;;5076519;28;20491;-63
2023/05/22 08:34:12;;;;;;;2.97;2.38;;;;;;;;;;5058628;28;20391;-63
2023/05/22 08:36:37;;;;;;;2.40;2.20;;;;;;;;;;5076700;28;20033;-63
2023/05/22 08:39:03;;;;;;;2.60;2.08;;;;;;;;;;5076390;28;20029;-63
2023/05/22 08:41:28;;;;;;;4.30;2.05;;;;;;;;;;5076899;28;20408;-63
2023/05/22 08:43:54;;;;;;;2.67;1.80;;;;;;;;;;5076533;28;20025;-63
2023/05/22 08:46:24;;;;;;;5.72;2.20;;;;;;;;;;5076465;28;20435;-63
2023/05/22 08:52:13;;;;;;;2.58;2.15;;;;;;;;;;5114181;22;19986;-61
2023/05/22 08:54:44;;;;;;;2.85;2.55;;;;;;;;;;5054397;28;20041;-62
2023/05/22 08:57:10;;;;;;;2.25;2.15;;;;;;;;;;5056341;28;20029;-63
2023/05/22 08:59:37;;;;;;;2.17;1.95;;;;;;;;;;5056032;28;20446;-63
2023/05/22 09:02:04;;;;;;;3.03;2.70;;;;;;;;;;5055978;28;20028;-63
2023/05/22 09:04:29;;;;;;;4.15;2.15;;;;;;;;;;5056106;28;20123;-63
2023/05/22 09:06:54;;;;;;;4.05;2.30;;;;;;;;;;5055272;28;20108;-63
2023/05/22 09:09:20;;;;;;;3.72;2.40;;;;;;;;;;5055870;28;20021;-63
2023/05/22 09:11:45;;;;;;;2.65;2.45;;;;;;;;;;5056344;28;20021;-63
2023/05/22 09:14:11;;;;;;;2.63;2.38;;;;;;;;;;5055762;28;20068;-63
2023/05/22 09:16:42;;;;;;;3.72;2.47;;;;;;;;;;5055953;28;20033;-63
2023/05/22 09:19:08;;;;;;;3.10;2.40;;;;;;;;;;5055894;28;20491;-64
2023/05/22 09:21:35;;;;;;;3.58;2.30;;;;;;;;;;5038449;28;20016;-63
2023/05/22 09:24:08;;;;;;;6.28;2.60;;;;;;;;;;5055739;28;20045;-63
2023/05/22 09:26:34;;;;;;;2.75;2.00;;;;;;;;;;5038049;28;20036;-63
2023/05/22 09:28:59;;;;;;;3.33;2.40;;;;;;;;;;5071005;28;20013;-63
2023/05/22 09:31:28;;;;;;;3.25;2.30;;;;;;;;;;5055433;28;20033;-63
2023/05/22 09:33:54;;;;;;;5.57;2.65;;;;;;;;;;5055661;28;20059;-63
2023/05/22 09:36:20;;;;;;;3.17;2.40;;;;;;;;;;5055328;28;20033;-63
2023/05/22 09:38:46;;;;;;;2.63;2.40;;;;;;;;;;5037405;28;20449;-63
2023/05/22 09:41:11;;;;;;;3.78;2.78;;;;;;;;;;5055505;28;20132;-63
2023/05/22 09:43:36;;;;;;;4.07;2.38;;;;;;;;;;5055656;28;20024;-63
2023/05/22 09:46:05;;;;;;;6.68;2.40;;;;;;;;;;5055159;28;20469;-63
2023/05/22 09:48:32;;;;;;;2.70;2.40;;;;;;;;;;5055670;28;20028;-63
2023/05/22 09:50:58;;;;;;;2.78;2.30;;;;;;;;;;5055336;28;20113;-63
2023/05/22 09:53:26;;;;;;;2.50;2.30;;;;;;;;;;5064895;28;20060;-63
2023/05/22 09:55:51;;;;;;;3.97;2.60;;;;;;;;;;5090838;28;20032;-63
2023/05/22 09:58:18;;;;;;;2.83;2.63;;;;;;;;;;5040380;28;20383;-63
2023/05/22 10:00:44;;;;;;;2.25;2.05;;;;;;;;;;5075150;28;20036;-63
2023/05/22 10:03:17;;;;;;;2.92;2.20;;;;;;;;;;5074986;28;20028;-63
2023/05/22 10:05:46;;;;;;;3.55;2.50;;;;;;;;;;5075302;28;20036;-63
2023/05/22 10:08:16;;;;;;;3.72;3.00;;;;;;;;;;5090362;28;20048;-63
2023/05/22 10:10:45;;;;;;;2.80;2.60;;;;;;;;;;5074932;28;20025;-63
2023/05/22 10:13:11;;;;;;;2.90;2.33;;;;;;;;;;5074622;28;20044;-63
2023/05/22 10:15:36;;;;;;;3.90;2.30;;;;;;;;;;5074846;28;20024;-63
2023/05/22 10:18:02;;;;;;;2.50;2.30;;;;;;;;;;5074507;28;20032;-63
2023/05/22 10:20:28;;;;;;;3.40;2.35;;;;;;;;;;5074683;28;20024;-63
2023/05/22 10:22:56;;;;;;;4.90;2.58;;;;;;;;;;5074362;28;20461;-63
2023/05/22 10:25:21;;;;;;;3.90;2.20;;;;;;;;;;5056506;28;20023;-63
2023/05/22 10:27:48;;;;;;;2.58;2.30;;;;;;;;;;5056821;28;20379;-63
2023/05/22 10:30:31;;;;;;;3.47;2.20;;;;;;;;;;5074289;28;20051;-63
2023/05/22 10:33:40;;;;;;;2.65;2.00;;;;;;;;;;4993237;28;20537;-63
2023/05/22 10:36:24;;;;;;;3.35;2.30;;;;;;;;;;4993199;28;20553;-63
2023/05/22 10:38:53;;;;;;;3.28;2.08;;;;;;;;;;5043273;28;20135;-63
2023/05/22 10:41:20;;;;;;;3.97;2.05;;;;;;;;;;5074589;28;20109;-63
2023/05/22 10:43:47;;;;;;;2.38;2.17;;;;;;;;;;5056398;28;20125;-63
2023/05/22 10:46:13;;;;;;;3.13;2.47;;;;;;;;;;5074037;28;20146;-63
2023/05/22 10:48:44;;;;;;;2.95;1.92;;;;;;;;;;5074202;28;20111;-63
2023/05/22 10:51:11;;;;;;;2.85;2.05;;;;;;;;;;5074223;28;20024;-63
2023/05/22 10:53:36;;;;;;;2.33;2.20;;;;;;;;;;5055781;28;20056;-63
2023/05/22 10:56:17;;;;;;;3.20;2.13;;;;;;;;;;5074412;28;20035;-63
2023/05/22 10:58:43;;;;;;;2.70;2.10;;;;;;;;;;5089470;28;20051;-63
2023/05/22 11:01:16;;;;;;;8.55;2.42;;;;;;;;;;5056687;28;20089;-63
2023/05/22 11:06:30;;;;;;;5.90;2.45;;;;;;;;;;5074212;28;20039;-63
2023/05/22 11:08:56;;;;;;;2.65;2.28;;;;;;;;;;5073988;28;20024;-63
2023/05/22 11:11:24;;;;;;;2.17;2.08;;;;;;;;;;5073648;28;20056;-63
2023/05/22 11:14:01;;;;;;;3.25;2.42;;;;;;;;;;5073921;28;20104;-63
2023/05/22 11:16:30;;;;;;;2.33;2.22;;;;;;;;;;5073878;28;20032;-63
2023/05/22 11:19:04;;;;;;;2.47;2.28;;;;;;;;;;5073899;28;20154;-63
2023/05/22 11:21:29;;;;;;;2.90;2.03;;;;;;;;;;5055583;28;20031;-63
2023/05/22 11:23:58;;;;;;;2.30;2.20;;;;;;;;;;5073766;28;20107;-63
2023/05/22 11:26:24;;;;;;;5.07;2.50;;;;;;;;;;5073542;28;20048;-63
2023/05/22 11:28:50;;;;;;;6.53;2.50;;;;;;;;;;5072786;28;20463;-63
2023/05/22 11:31:16;;;;;;;4.15;2.30;;;;;;;;;;5073422;28;20038;-63
2023/05/22 11:33:42;;;;;;;2.63;2.03;;;;;;;;;;5074045;28;20024;-63
2023/05/22 11:36:08;;;;;;;2.35;2.15;;;;;;;;;;5073393;28;20028;-63
2023/05/22 11:38:33;;;;;;;3.20;2.40;;;;;;;;;;5073696;28;20086;-63
2023/05/22 11:40:59;;;;;;;2.63;2.45;;;;;;;;;;5073614;28;20063;-63
2023/05/22 11:43:28;;;;;;;4.80;2.30;;;;;;;;;;5089412;28;20036;-63
2023/05/22 11:45:54;;;;;;;2.80;2.47;;;;;;;;;;5073657;28;20102;-63
2023/05/22 11:48:19;;;;;;;3.00;2.33;;;;;;;;;;5073288;28;20414;-63
2023/05/22 11:50:45;;;;;;;2.35;2.15;;;;;;;;;;5088843;28;20024;-60
2023/05/22 11:53:11;;;;;;;2.38;2.17;;;;;;;;;;5073261;28;20041;-60
2023/05/22 11:55:36;;;;;;;2.15;1.95;;;;;;;;;;5073521;28;20139;-60
2023/05/22 11:58:01;;;;;;;5.80;2.50;;;;;;;;;;5073798;28;20025;-60
2023/05/22 12:00:28;;;;;;;3.13;2.40;;;;;;;;;;5055484;28;20472;-60
2023/05/22 12:02:53;;;;;;;2.65;2.47;;;;;;;;;;5055859;28;20426;-60
2023/05/22 12:05:20;;;;;;;2.60;2.40;;;;;;;;;;5055209;28;20024;-60
2023/05/22 12:07:45;;;;;;;6.03;2.67;;;;;;;;;;5088726;28;20058;-60
2023/05/22 12:10:12;;;;;;;2.95;2.50;;;;;;;;;;5073680;28;20034;-60
2023/05/22 12:12:38;;;;;;;2.75;2.55;;;;;;;;;;5073078;28;20029;-60
2023/05/22 12:15:06;;;;;;;3.60;2.40;;;;;;;;;;5073045;28;20023;-60
2023/05/22 12:17:34;;;;;;;2.50;2.30;;;;;;;;;;5073323;28;20029;-60
2023/05/22 12:19:59;;;;;;;3.95;2.47;;;;;;;;;;5038520;28;20036;-60
2023/05/22 12:22:28;;;;;;;3.67;2.15;;;;;;;;;;5088559;28;20037;-60
2023/05/22 12:24:54;;;;;;;3.28;2.30;;;;;;;;;;5055003;28;20511;-60
2023/05/22 12:27:19;;;;;;;2.83;2.63;;;;;;;;;;5072926;28;20068;-60
2023/05/22 12:29:46;;;;;;;3.10;2.33;;;;;;;;;;5055362;28;20016;-60
2023/05/22 12:32:11;;;;;;;3.33;2.35;;;;;;;;;;5089150;28;20048;-60
2023/05/22 12:37:19;;;;;;;4.78;2.28;;;;;;;;;;5079690;23;20515;-60
2023/05/22 12:39:55;;;;;;;2.20;2.10;;;;;;;;;;5055301;28;20055;-60
2023/05/22 12:42:20;;;;;;;2.67;2.47;;;;;;;;;;5076651;28;20039;-60
2023/05/22 12:44:46;;;;;;;4.85;2.00;;;;;;;;;;5076504;28;20033;-60
2023/05/22 12:47:11;;;;;;;3.75;2.38;;;;;;;;;;5076535;28;20029;-60
2023/05/22 12:49:36;;;;;;;3.05;2.03;;;;;;;;;;5091771;28;20537;-60
2023/05/22 12:52:01;;;;;;;2.60;2.33;;;;;;;;;;5076526;28;20023;-60
2023/05/22 12:54:27;;;;;;;3.63;2.30;;;;;;;;;;5076169;28;20035;-60
2023/05/22 12:56:52;;;;;;;5.57;2.20;;;;;;;;;;5076143;28;20070;-60
2023/05/22 12:59:17;;;;;;;2.40;2.20;;;;;;;;;;5076330;28;20032;-60
2023/05/22 13:01:42;;;;;;;2.42;2.28;;;;;;;;;;5076329;28;20078;-60
2023/05/22 13:04:08;;;;;;;2.92;2.00;;;;;;;;;;5076227;28;20020;-60
2023/05/22 13:06:33;;;;;;;2.80;2.45;;;;;;;;;;5075961;28;20383;-60
2023/05/22 13:08:59;;;;;;;4.40;2.10;;;;;;;;;;5076178;28;20149;-60
2023/05/22 13:11:25;;;;;;;3.45;2.53;;;;;;;;;;5075971;28;20025;-60
2023/05/22 13:13:50;;;;;;;2.83;2.42;;;;;;;;;;5074775;28;20036;-61
2023/05/22 13:16:15;;;;;;;3.60;2.00;;;;;;;;;;5072428;28;20028;-60
2023/05/22 13:18:41;;;;;;;2.47;2.30;;;;;;;;;;5080391;28;20650;-62
2023/05/22 13:21:06;;;;;;;2.75;2.40;;;;;;;;;;5074469;28;20032;-62
2023/05/22 13:23:32;;;;;;;2.28;2.15;;;;;;;;;;5045800;28;20390;-63
2023/05/22 13:25:57;;;;;;;3.38;2.10;;;;;;;;;;5075501;28;20143;-63
2023/05/22 13:28:22;;;;;;;2.88;2.45;;;;;;;;;;5061335;28;20499;-63
2023/05/22 13:30:48;;;;;;;3.13;2.10;;;;;;;;;;5081000;28;20146;-63
2023/05/22 13:33:23;;;;;;;4.07;2.60;;;;;;;;;;5075502;28;20035;-62
2023/05/22 13:35:48;;;;;;;4.38;2.30;;;;;;;;;;5069031;28;20036;-63
2023/05/22 13:38:14;;;;;;;2.40;2.20;;;;;;;;;;5055317;28;20033;-63
2023/05/22 13:40:39;;;;;;;2.45;2.17;;;;;;;;;;5052327;28;20452;-63
2023/05/22 13:43:04;;;;;;;3.22;2.40;;;;;;;;;;5054802;28;20365;-63
2023/05/22 13:45:30;;;;;;;2.30;2.10;;;;;;;;;;5053922;28;20052;-63
2023/05/22 13:47:55;;;;;;;5.50;2.60;;;;;;;;;;5054481;28;20079;-63
2023/05/22 13:50:21;;;;;;;3.00;2.80;;;;;;;;;;5053762;28;20091;-63
2023/05/22 13:52:46;;;;;;;9.60;8.60;;;;;;;;;;5053582;28;20021;-63
2023/05/22 13:55:11;;;;;;;3.63;2.30;;;;;;;;;;5054836;28;20449;-63
2023/05/22 13:57:39;;;;;;;5.03;4.57;;;;;;;;;;5053577;28;20036;-63
2023/05/22 14:00:05;;;;;;;2.30;2.20;;;;;;;;;;5054131;28;20103;-63
2023/05/22 14:02:33;;;;;;;2.75;2.28;;;;;;;;;;5054052;28;20480;-63
2023/05/22 14:04:58;;;;;;;2.72;2.38;;;;;;;;;;5052960;28;20025;-63
2023/05/22 14:07:24;;;;;;;3.75;2.30;;;;;;;;;;5053282;28;20373;-63
2023/05/22 14:09:49;;;;;;;2.60;2.40;;;;;;;;;;5054576;28;20032;-63
2023/05/22 14:12:15;;;;;;;4.15;2.30;;;;;;;;;;5055245;28;20029;-63
2023/05/22 14:14:46;;;;;;;2.40;2.20;;;;;;;;;;5053730;28;20033;-63
2023/05/22 14:17:11;;;;;;;2.78;2.58;;;;;;;;;;5054778;28;20469;-63
2023/05/22 14:19:37;;;;;;;2.08;1.98;;;;;;;;;;5055125;28;20040;-62
2023/05/22 14:22:02;;;;;;;3.47;2.67;;;;;;;;;;5054868;28;20465;-63
2023/05/22 14:24:28;;;;;;;4.18;2.25;;;;;;;;;;5054717;28;20029;-63
2023/05/22 14:26:56;;;;;;;2.67;2.03;;;;;;;;;;5054006;28;20025;-63
2023/05/22 14:29:24;;;;;;;3.33;2.40;;;;;;;;;;5079316;28;20055;-63
2023/05/22 14:31:49;;;;;;;2.50;2.30;;;;;;;;;;5054637;28;20422;-63
2023/05/22 14:34:15;;;;;;;3.42;2.30;;;;;;;;;;5054517;28;20063;-63
2023/05/22 14:36:41;;;;;;;3.53;2.20;;;;;;;;;;5081406;28;20132;-63
2023/05/22 14:39:06;;;;;;;2.80;2.33;;;;;;;;;;5075550;28;20115;-63
2023/05/22 14:41:32;;;;;;;2.60;2.20;;;;;;;;;;5092934;28;20031;-63
2023/05/22 14:43:58;;;;;;;4.63;2.20;;;;;;;;;;5092984;28;20036;-63
2023/05/22 14:46:23;;;;;;;4.07;3.55;;;;;;;;;;5093331;28;20016;-63
2023/05/22 14:48:48;;;;;;;2.78;2.58;;;;;;;;;;5075395;28;20375;-63
2023/05/22 14:51:19;;;;;;;4.20;3.67;;;;;;;;;;5093162;28;20016;-63
2023/05/22 14:53:44;;;;;;;2.72;2.53;;;;;;;;;;5093704;28;20463;-63